Terminal Aerodrome Forecast
Issued by NWS

Home | Current Version | Previous Version | Text Only | Print | Product List | Glossary Off
Versions: 1 2 3 4 5 6 7 8 9 10 11 12 13 14 15 16 17

000
FTUS43 KIWX 170500
TAFSBN
TAF
KSBN 170538Z 1706/1806 30014KT P6SM OVC015
     FM171200 28013KT P6SM OVC020
     FM180000 28007KT P6SM BKN025=

USA.gov is the U.S. government's official web portal to all federal, state and local government web resources and services.